Etusivu
METAR-TAF:

METAR-TAF

Lentoasemat :

Huntsville, Alabama, Yhdysvallat

Leveyspiiri: 34-51-41N, Pituuspiiri: 086-33-26W, korkeus merenpinnasta: 230 m

Tämänhetkinen sää

Tämä raportti tehtiin 30 minuuttia sitten, kello 05.55 UTC
Tuuli 3 kn etelästä
Lämpötila 21°C
Kosteus 88%
Ilmanpaine 1017 hPa
Näkyvyys: 16.1 km
selkeää

METAR: KMDQ 170555Z AUTO 19003KT 10SM CLR 21/19 A3004 RMK A02 T02120193 10283 20205

Aika: 01:25 (06:25 UTC)


TAF: puuttuu

Säähavainnot ja -ennusteet yli 4000 lentoasemalta (METAR- ja TAF-raportit).

Käytössä olevat sääasemat on merkitty karttaan keltaisilla ja punaisilla pisteillä.

Aseta hiiri pisteen päälle nähdäksesi sääaseman nimen.

Klikkaa sitten nähdäksesi säähavainnot ja -ennusteet.

Kartan vaihtaminen: klikkaa mustalla rastilla varustettuja vihreitä pisteitä, niin voit zoomata sisään; viivalla varustettua vihreää pistettä, niin voit zoomata ulos tai vihreitä nuolia, niin pääset viereisille kartoille.


METAR-TAF: